sensor_id;sensor_type;location;lat;lon;timestamp;temperature;humidity
14551;DHT22;7362;50.956;4.184;2022-11-14T13:50:11;7.40;99.90
14551;DHT22;7362;50.956;4.184;2022-11-14T13:52:45;7.40;99.90
14551;DHT22;7362;50.956;4.184;2022-11-14T14:01:23;7.40;99.90
14551;DHT22;7362;50.956;4.184;2022-11-14T14:04:13;7.40;99.90
14551;DHT22;7362;50.956;4.184;2022-11-14T14:07:18;7.60;99.90
14551;DHT22;7362;50.956;4.184;2022-11-14T14:15:18;7.30;99.90
14551;DHT22;7362;50.956;4.184;2022-11-14T14:17:55;7.20;99.90
14551;DHT22;7362;50.956;4.184;2022-11-14T14:20:40;7.50;99.90
14551;DHT22;7362;50.956;4.184;2022-11-14T14:29:19;7.20;99.90
14551;DHT22;7362;50.956;4.184;2022-11-14T14:31:46;7.30;99.90
14551;DHT22;7362;50.956;4.184;2022-11-14T14:34:28;7.30;99.90
14551;DHT22;7362;50.956;4.184;2022-11-14T14:36:55;7.40;99.90
14551;DHT22;7362;50.956;4.184;2022-11-14T14:39:23;7.30;99.90
14551;DHT22;7362;50.956;4.184;2022-11-14T14:41:51;7.30;99.90
14551;DHT22;7362;50.956;4.184;2022-11-14T14:46:54;7.40;99.90
14551;DHT22;7362;50.956;4.184;2022-11-14T14:49:34;7.40;99.90
14551;DHT22;7362;50.956;4.184;2022-11-14T14:52:31;7.50;99.90
14551;DHT22;7362;50.956;4.184;2022-11-14T14:54:58;7.60;99.90
14551;DHT22;7362;50.956;4.184;2022-11-14T14:57:28;7.60;99.90
14551;DHT22;7362;50.956;4.184;2022-11-14T15:00:18;7.50;99.90
14551;DHT22;7362;50.956;4.184;2022-11-14T15:02:46;7.60;99.90
14551;DHT22;7362;50.956;4.184;2022-11-14T15:05:27;7.80;99.90
14551;DHT22;7362;50.956;4.184;2022-11-14T15:07:58;7.90;99.90
14551;DHT22;7362;50.956;4.184;2022-11-14T15:10:27;7.60;99.90
14551;DHT22;7362;50.956;4.184;2022-11-14T15:12:58;7.60;99.90
14551;DHT22;7362;50.956;4.184;2022-11-14T15:15:25;7.60;99.90
14551;DHT22;7362;50.956;4.184;2022-11-14T15:17:53;7.50;99.90
14551;DHT22;7362;50.956;4.184;2022-11-14T15:20:25;7.50;99.90
14551;DHT22;7362;50.956;4.184;2022-11-14T15:23:21;7.60;99.90
14551;DHT22;7362;50.956;4.184;2022-11-14T15:25:48;7.60;99.90
14551;DHT22;7362;50.956;4.184;2022-11-14T15:28:28;7.60;99.90
14551;DHT22;7362;50.956;4.184;2022-11-14T15:30:58;7.60;99.90
14551;DHT22;7362;50.956;4.184;2022-11-14T15:33:30;7.60;99.90
14551;DHT22;7362;50.956;4.184;2022-11-14T15:38:32;7.60;99.90
14551;DHT22;7362;50.956;4.184;2022-11-14T15:41:28;7.50;99.90
14551;DHT22;7362;50.956;4.184;2022-11-14T15:43:57;7.40;99.90
14551;DHT22;7362;50.956;4.184;2022-11-14T15:49:08;7.40;99.90
14551;DHT22;7362;50.956;4.184;2022-11-14T15:51:54;7.40;99.90
14551;DHT22;7362;50.956;4.184;2022-11-14T15:54:32;7.40;99.90
14551;DHT22;7362;50.956;4.184;2022-11-14T15:57:14;7.50;99.90
14551;DHT22;7362;50.956;4.184;2022-11-14T15:59:41;7.50;99.90
14551;DHT22;7362;50.956;4.184;2022-11-14T16:02:24;7.50;99.90
14551;DHT22;7362;50.956;4.184;2022-11-14T16:04:53;7.60;99.90
14551;DHT22;7362;50.956;4.184;2022-11-14T16:07:21;7.60;99.90
14551;DHT22;7362;50.956;4.184;2022-11-14T16:09:49;7.50;99.90
14551;DHT22;7362;50.956;4.184;2022-11-14T16:12:16;7.50;99.90
14551;DHT22;7362;50.956;4.184;2022-11-14T16:14:43;7.50;99.90
14551;DHT22;7362;50.956;4.184;2022-11-14T16:17:14;7.50;99.90
14551;DHT22;7362;50.956;4.184;2022-11-14T16:19:40;7.60;99.90
14551;DHT22;7362;50.956;4.184;2022-11-14T16:22:10;7.50;99.90
14551;DHT22;7362;50.956;4.184;2022-11-14T16:24:39;7.60;99.90
14551;DHT22;7362;50.956;4.184;2022-11-14T16:27:08;7.50;99.90
14551;DHT22;7362;50.956;4.184;2022-11-14T16:29:33;7.50;99.90
14551;DHT22;7362;50.956;4.184;2022-11-14T16:32:07;7.60;99.90
14551;DHT22;7362;50.956;4.184;2022-11-14T16:34:34;7.60;99.90
14551;DHT22;7362;50.956;4.184;2022-11-14T16:37:01;7.60;99.90
14551;DHT22;7362;50.956;4.184;2022-11-14T16:39:27;7.60;99.90
14551;DHT22;7362;50.956;4.184;2022-11-14T16:42:03;7.60;99.90
14551;DHT22;7362;50.956;4.184;2022-11-14T16:44:31;7.50;99.90
14551;DHT22;7362;50.956;4.184;2022-11-14T16:46:57;7.60;99.90
14551;DHT22;7362;50.956;4.184;2022-11-14T16:49:27;7.60;99.90
14551;DHT22;7362;50.956;4.184;2022-11-14T16:51:56;7.60;99.90
14551;DHT22;7362;50.956;4.184;2022-11-14T16:54:23;7.70;99.90
14551;DHT22;7362;50.956;4.184;2022-11-14T16:56:49;7.70;99.90
14551;DHT22;7362;50.956;4.184;2022-11-14T16:59:25;7.70;99.90
14551;DHT22;7362;50.956;4.184;2022-11-14T17:01:59;7.60;99.90
14551;DHT22;7362;50.956;4.184;2022-11-14T17:04:27;7.60;99.90
14551;DHT22;7362;50.956;4.184;2022-11-14T17:06:52;7.60;99.90
14551;DHT22;7362;50.956;4.184;2022-11-14T17:09:18;7.60;99.90
14551;DHT22;7362;50.956;4.184;2022-11-14T17:11:45;7.60;99.90
14551;DHT22;7362;50.956;4.184;2022-11-14T17:14:11;7.50;99.90
14551;DHT22;7362;50.956;4.184;2022-11-14T17:16:42;7.50;99.90
14551;DHT22;7362;50.956;4.184;2022-11-14T17:19:14;7.60;99.90
14551;DHT22;7362;50.956;4.184;2022-11-14T17:21:41;7.60;99.90
14551;DHT22;7362;50.956;4.184;2022-11-14T17:24:08;7.60;99.90
14551;DHT22;7362;50.956;4.184;2022-11-14T17:26:35;7.60;99.90
14551;DHT22;7362;50.956;4.184;2022-11-14T17:29:04;7.70;99.90
14551;DHT22;7362;50.956;4.184;2022-11-14T17:31:37;7.70;99.90
14551;DHT22;7362;50.956;4.184;2022-11-14T17:34:14;7.80;99.90
14551;DHT22;7362;50.956;4.184;2022-11-14T17:36:43;7.70;99.90
14551;DHT22;7362;50.956;4.184;2022-11-14T17:39:09;7.60;99.90
14551;DHT22;7362;50.956;4.184;2022-11-14T17:41:39;7.60;99.90
14551;DHT22;7362;50.956;4.184;2022-11-14T17:44:06;7.70;99.90
14551;DHT22;7362;50.956;4.184;2022-11-14T17:46:35;7.70;99.90
14551;DHT22;7362;50.956;4.184;2022-11-14T17:49:02;7.70;99.90
14551;DHT22;7362;50.956;4.184;2022-11-14T17:51:27;7.80;99.90
14551;DHT22;7362;50.956;4.184;2022-11-14T17:54:01;7.80;99.90
14551;DHT22;7362;50.956;4.184;2022-11-14T17:56:26;7.80;99.90
14551;DHT22;7362;50.956;4.184;2022-11-14T17:58:53;7.80;99.90
14551;DHT22;7362;50.956;4.184;2022-11-14T18:01:22;7.80;99.90
14551;DHT22;7362;50.956;4.184;2022-11-14T18:03:57;7.90;99.90
14551;DHT22;7362;50.956;4.184;2022-11-14T18:06:24;9.10;99.90
14551;DHT22;7362;50.956;4.184;2022-11-14T18:09:10;8.00;99.90
14551;DHT22;7362;50.956;4.184;2022-11-14T18:11:42;8.00;99.90
14551;DHT22;7362;50.956;4.184;2022-11-14T18:14:11;7.90;99.90
14551;DHT22;7362;50.956;4.184;2022-11-14T18:16:40;8.00;99.90
14551;DHT22;7362;50.956;4.184;2022-11-14T18:19:09;8.30;99.90
14551;DHT22;7362;50.956;4.184;2022-11-14T18:21:37;7.80;99.90
14551;DHT22;7362;50.956;4.184;2022-11-14T18:24:16;7.90;99.90
14551;DHT22;7362;50.956;4.184;2022-11-14T18:26:54;7.90;99.90
14551;DHT22;7362;50.956;4.184;2022-11-14T18:29:23;7.80;99.90
14551;DHT22;7362;50.956;4.184;2022-11-14T18:31:59;7.90;99.90
14551;DHT22;7362;50.956;4.184;2022-11-14T18:34:29;8.00;99.90
14551;DHT22;7362;50.956;4.184;2022-11-14T18:37:00;8.00;99.90
14551;DHT22;7362;50.956;4.184;2022-11-14T18:39:30;8.80;99.90
14551;DHT22;7362;50.956;4.184;2022-11-14T18:42:00;8.10;99.90
14551;DHT22;7362;50.956;4.184;2022-11-14T18:44:34;8.20;99.90
14551;DHT22;7362;50.956;4.184;2022-11-14T18:47:39;8.10;99.90
14551;DHT22;7362;50.956;4.184;2022-11-14T18:50:19;8.20;99.90
14551;DHT22;7362;50.956;4.184;2022-11-14T18:52:50;8.20;99.90
14551;DHT22;7362;50.956;4.184;2022-11-14T18:56:07;8.30;99.90
14551;DHT22;7362;50.956;4.184;2022-11-14T18:58:54;8.30;99.90
14551;DHT22;7362;50.956;4.184;2022-11-14T19:01:24;8.40;99.90
14551;DHT22;7362;50.956;4.184;2022-11-14T19:04:00;8.40;99.90
14551;DHT22;7362;50.956;4.184;2022-11-14T19:06:34;8.40;99.90
14551;DHT22;7362;50.956;4.184;2022-11-14T19:09:03;8.50;99.90
14551;DHT22;7362;50.956;4.184;2022-11-14T19:11:34;8.50;99.90
14551;DHT22;7362;50.956;4.184;2022-11-14T19:14:19;8.50;99.90
14551;DHT22;7362;50.956;4.184;2022-11-14T19:16:52;8.50;99.90
14551;DHT22;7362;50.956;4.184;2022-11-14T19:19:24;8.60;99.90
14551;DHT22;7362;50.956;4.184;2022-11-14T19:21:55;8.60;99.90
14551;DHT22;7362;50.956;4.184;2022-11-14T19:24:37;8.60;99.90
14551;DHT22;7362;50.956;4.184;2022-11-14T19:27:33;8.50;99.90
14551;DHT22;7362;50.956;4.184;2022-11-14T19:30:25;8.70;99.90
14551;DHT22;7362;50.956;4.184;2022-11-14T19:33:01;8.70;99.90
14551;DHT22;7362;50.956;4.184;2022-11-14T19:35:31;8.80;99.90
14551;DHT22;7362;50.956;4.184;2022-11-14T19:37:59;8.90;99.90
14551;DHT22;7362;50.956;4.184;2022-11-14T19:40:26;8.90;99.90
14551;DHT22;7362;50.956;4.184;2022-11-14T19:42:59;9.00;99.90
14551;DHT22;7362;50.956;4.184;2022-11-14T19:45:32;9.00;99.90
14551;DHT22;7362;50.956;4.184;2022-11-14T19:48:10;9.10;99.90
14551;DHT22;7362;50.956;4.184;2022-11-14T19:50:47;9.20;99.90
14551;DHT22;7362;50.956;4.184;2022-11-14T19:53:40;9.20;99.90
14551;DHT22;7362;50.956;4.184;2022-11-14T19:56:12;9.20;99.90
14551;DHT22;7362;50.956;4.184;2022-11-14T19:58:45;9.30;99.90
14551;DHT22;7362;50.956;4.184;2022-11-14T20:01:38;9.30;99.90
14551;DHT22;7362;50.956;4.184;2022-11-14T20:04:29;9.40;99.90
14551;DHT22;7362;50.956;4.184;2022-11-14T20:07:12;9.40;99.90
14551;DHT22;7362;50.956;4.184;2022-11-14T20:10:03;9.50;99.90
14551;DHT22;7362;50.956;4.184;2022-11-14T20:12:45;9.50;99.90
14551;DHT22;7362;50.956;4.184;2022-11-14T20:15:17;9.50;99.90
14551;DHT22;7362;50.956;4.184;2022-11-14T20:17:54;9.60;99.90
14551;DHT22;7362;50.956;4.184;2022-11-14T20:20:20;9.60;99.90
14551;DHT22;7362;50.956;4.184;2022-11-14T20:22:54;9.60;99.90
14551;DHT22;7362;50.956;4.184;2022-11-14T20:25:26;9.70;99.90
14551;DHT22;7362;50.956;4.184;2022-11-14T20:27:58;9.80;99.90
14551;DHT22;7362;50.956;4.184;2022-11-14T20:30:27;9.90;99.90
14551;DHT22;7362;50.956;4.184;2022-11-14T20:32:54;9.90;99.90
14551;DHT22;7362;50.956;4.184;2022-11-14T20:35:23;10.00;99.90
14551;DHT22;7362;50.956;4.184;2022-11-14T20:38:05;10.00;99.90
14551;DHT22;7362;50.956;4.184;2022-11-14T20:40:32;10.10;99.90
14551;DHT22;7362;50.956;4.184;2022-11-14T20:42:59;10.10;99.90
14551;DHT22;7362;50.956;4.184;2022-11-14T20:48:32;10.30;99.90
14551;DHT22;7362;50.956;4.184;2022-11-14T20:51:21;10.30;99.90
14551;DHT22;7362;50.956;4.184;2022-11-14T20:53:55;10.30;99.90
14551;DHT22;7362;50.956;4.184;2022-11-14T20:56:22;10.40;99.90
14551;DHT22;7362;50.956;4.184;2022-11-14T20:58:50;10.40;99.90
14551;DHT22;7362;50.956;4.184;2022-11-14T21:01:18;10.50;99.90
14551;DHT22;7362;50.956;4.184;2022-11-14T21:03:46;10.50;99.90
14551;DHT22;7362;50.956;4.184;2022-11-14T21:06:36;10.50;99.90
14551;DHT22;7362;50.956;4.184;2022-11-14T21:09:06;10.50;99.90
14551;DHT22;7362;50.956;4.184;2022-11-14T21:11:57;10.60;99.90
14551;DHT22;7362;50.956;4.184;2022-11-14T21:14:26;10.60;99.90
14551;DHT22;7362;50.956;4.184;2022-11-14T21:16:52;10.70;99.90
14551;DHT22;7362;50.956;4.184;2022-11-14T21:19:18;10.60;99.90
14551;DHT22;7362;50.956;4.184;2022-11-14T21:21:49;10.70;99.90
14551;DHT22;7362;50.956;4.184;2022-11-14T21:24:24;10.70;99.90
14551;DHT22;7362;50.956;4.184;2022-11-14T21:27:00;10.80;99.90
14551;DHT22;7362;50.956;4.184;2022-11-14T21:29:39;10.90;99.90
14551;DHT22;7362;50.956;4.184;2022-11-14T21:32:06;11.10;99.90
14551;DHT22;7362;50.956;4.184;2022-11-14T21:34:35;10.90;99.90
14551;DHT22;7362;50.956;4.184;2022-11-14T21:37:03;10.90;99.90
14551;DHT22;7362;50.956;4.184;2022-11-14T21:39:46;10.90;99.90
14551;DHT22;7362;50.956;4.184;2022-11-14T21:42:26;10.90;99.90
14551;DHT22;7362;50.956;4.184;2022-11-14T21:45:05;11.00;99.90
14551;DHT22;7362;50.956;4.184;2022-11-14T21:47:35;10.90;99.90
14551;DHT22;7362;50.956;4.184;2022-11-14T21:50:11;11.00;99.90
14551;DHT22;7362;50.956;4.184;2022-11-14T21:52:43;11.00;99.90
14551;DHT22;7362;50.956;4.184;2022-11-14T21:55:12;11.20;99.90
14551;DHT22;7362;50.956;4.184;2022-11-14T21:57:40;11.00;99.90
14551;DHT22;7362;50.956;4.184;2022-11-14T22:00:19;11.00;99.90
14551;DHT22;7362;50.956;4.184;2022-11-14T22:02:48;11.10;99.90
14551;DHT22;7362;50.956;4.184;2022-11-14T22:05:36;11.10;99.90
14551;DHT22;7362;50.956;4.184;2022-11-14T22:08:16;10.70;99.90
14551;DHT22;7362;50.956;4.184;2022-11-14T22:10:52;11.20;99.90
14551;DHT22;7362;50.956;4.184;2022-11-14T22:13:29;11.20;99.90
14551;DHT22;7362;50.956;4.184;2022-11-14T22:16:31;11.10;99.90
14551;DHT22;7362;50.956;4.184;2022-11-14T22:19:23;11.20;99.90
14551;DHT22;7362;50.956;4.184;2022-11-14T22:22:06;11.20;99.90
14551;DHT22;7362;50.956;4.184;2022-11-14T22:24:41;11.20;99.90
14551;DHT22;7362;50.956;4.184;2022-11-14T22:27:09;11.20;99.90
14551;DHT22;7362;50.956;4.184;2022-11-14T22:29:36;11.30;99.90
14551;DHT22;7362;50.956;4.184;2022-11-14T22:32:17;11.30;99.90
14551;DHT22;7362;50.956;4.184;2022-11-14T22:34:44;11.30;99.90
14551;DHT22;7362;50.956;4.184;2022-11-14T22:37:20;11.40;99.90
14551;DHT22;7362;50.956;4.184;2022-11-14T22:39:49;11.50;99.90
14551;DHT22;7362;50.956;4.184;2022-11-14T22:42:21;11.50;99.90
14551;DHT22;7362;50.956;4.184;2022-11-14T22:48:22;11.50;99.90
14551;DHT22;7362;50.956;4.184;2022-11-14T22:51:25;11.60;99.90
14551;DHT22;7362;50.956;4.184;2022-11-14T22:53:56;11.60;99.90
14551;DHT22;7362;50.956;4.184;2022-11-14T22:56:38;11.60;99.90
14551;DHT22;7362;50.956;4.184;2022-11-14T22:59:20;11.70;99.90
14551;DHT22;7362;50.956;4.184;2022-11-14T23:02:23;11.70;99.90
14551;DHT22;7362;50.956;4.184;2022-11-14T23:04:58;11.80;99.90
14551;DHT22;7362;50.956;4.184;2022-11-14T23:07:49;11.80;99.90
14551;DHT22;7362;50.956;4.184;2022-11-14T23:10:20;11.80;99.90
14551;DHT22;7362;50.956;4.184;2022-11-14T23:16:17;11.90;99.90
14551;DHT22;7362;50.956;4.184;2022-11-14T23:18:49;11.90;99.90
14551;DHT22;7362;50.956;4.184;2022-11-14T23:21:27;11.90;99.90
14551;DHT22;7362;50.956;4.184;2022-11-14T23:24:13;11.90;99.90
14551;DHT22;7362;50.956;4.184;2022-11-14T23:26:48;11.90;99.90
14551;DHT22;7362;50.956;4.184;2022-11-14T23:29:23;11.90;99.90
14551;DHT22;7362;50.956;4.184;2022-11-14T23:31:55;11.90;99.90
14551;DHT22;7362;50.956;4.184;2022-11-14T23:34:21;12.00;99.90
14551;DHT22;7362;50.956;4.184;2022-11-14T23:36:50;12.00;99.90
14551;DHT22;7362;50.956;4.184;2022-11-14T23:42:29;12.00;99.90
14551;DHT22;7362;50.956;4.184;2022-11-14T23:45:00;12.10;99.90
14551;DHT22;7362;50.956;4.184;2022-11-14T23:47:29;12.00;99.90
14551;DHT22;7362;50.956;4.184;2022-11-14T23:49:55;12.00;99.90
14551;DHT22;7362;50.956;4.184;2022-11-14T23:52:32;12.00;99.90
14551;DHT22;7362;50.956;4.184;2022-11-14T23:55:00;12.00;99.90
14551;DHT22;7362;50.956;4.184;2022-11-14T23:57:51;12.10;99.90
